Accueil
METAR-TAF:

METAR-TAF

Aéroports :

Aéroport international de Yap

Yap, Micronésie

latitude: 09-29N, longitude: 138-05E, altitude: 28 m

Observation

Le bulletin a été fait il y a 30 minutes, à 00:52 UTC
Vent 7 kt de sud
Température 30°C
Humidité 84%
Pression 1010 hPa
Visibilité: 19.3 km
Nuages épars à une hauteur de 1700 ft
Nuages fragmentés à une hauteur de 30000 ft

METAR: PTYA 120052Z 17007KT 12SM SCT017 BKN300 30/27 A2982 RMK SLP098 T03020273

Heure: 11:22 (01:22 UTC)

Prévision

Le bulletin a été fait il y a 1 heure et 46 minutes, à 23:36 UTC
Prévision valable du 12 à 00 UTC au 12 à 24 UTC
Vent 11 kt de sud/sud-ouest
Visibilité: 10 km
Nuages épars à une hauteur de 1600 ft
Nuages épars à une hauteur de 13000 ft
averses à proximité

TAF: PTYA 112336Z 1200/1224 21011KT P6SM VCSH SCT016 SCT130

Observations et prévisions météorologiques de plus de 4000 aéroports (messages METAR et TAF).

Les stations disponibles sont représentées par des disques jaunes et rouges sur la carte.

Passer la souris dessus pour voir le nom de la station.

Cliquer dessus pour voir les observations et prévisions météorologiques.

Pour changer de carte: cliquez sur les boutons verts avec une croix noire pour zoomer, sur le bouton vert avec un tiret pour effectuer un zoom arrière, ou sur les flèches vertes pour les cartes adjacentes.


METAR-TAF: